Time;durP1;ratioP1;P1;durP2;ratioP2;P2;SDS_P1;SDS_P2;PMS_P1;PMS_P2;Temp;Humidity;BMP_temperature;BMP_pressure;BME280_temperature;BME280_humidity;BME280_pressure;Samples;Min_cycle;Max_cycle;Signal;HPM_P1;HPM_P2
2023/01/25 00:00:56;;;;;;;;;;;;;;;2.31;79.39;101663.00;1080022;54;19954;-83
2023/01/25 00:01:58;;;;;;;;;;;;;;;2.29;79.02;101662.16;1077129;54;19937;-83
2023/01/25 00:05:17;;;;;;;;;;;;;;;2.32;79.29;101664.72;1069971;54;20014;-83
2023/01/25 00:06:18;;;;;;;;;;;;;;;2.31;79.27;101663.00;1085079;54;20242;-82
2023/01/25 00:08:24;;;;;;;;;;;;;;;2.33;79.53;101671.72;1088352;54;19939;-84
2023/01/25 00:09:25;;;;;;;;;;;;;;;2.35;79.40;101669.03;1088478;54;19941;-84
2023/01/25 00:12:42;;;;;;;;;;;;;;;2.33;79.02;101661.16;1088075;54;19951;-82
2023/01/25 00:13:43;;;;;;;;;;;;;;;2.35;78.94;101655.81;1087682;54;19943;-85
2023/01/25 00:14:47;;;;;;;;;;;;;;;2.26;79.41;101654.38;1089824;47;19942;-81
2023/01/25 00:15:48;;;;;;;;;;;;;;;2.25;79.67;101663.22;1088510;54;19927;-83
2023/01/25 00:16:54;;;;;;;;;;;;;;;2.25;79.63;101663.22;1088735;54;19942;-83
2023/01/25 00:17:55;;;;;;;;;;;;;;;2.27;79.91;101660.50;1088688;54;19942;-83
2023/01/25 00:18:59;;;;;;;;;;;;;;;2.29;79.72;101662.16;1088766;54;19927;-82
2023/01/25 00:20:00;;;;;;;;;;;;;;;2.29;79.49;101656.88;1088678;54;21316;-82
2023/01/25 00:21:13;;;;;;;;;;;;;;;2.29;79.43;101664.81;1088698;54;20536;-83
2023/01/25 00:22:14;;;;;;;;;;;;;;;2.29;79.27;101659.53;1088716;54;19934;-84
2023/01/25 00:23:18;;;;;;;;;;;;;;;2.27;79.59;101661.34;1096942;39;20498;-82
2023/01/25 00:24:21;;;;;;;;;;;;;;;2.26;79.80;101661.41;1094800;39;20758;-84
2023/01/25 00:25:31;;;;;;;;;;;;;;;2.25;79.51;101662.31;1088754;54;19947;-84
2023/01/25 00:26:33;;;;;;;;;;;;;;;2.31;79.63;101663.00;1088804;54;19946;-83
2023/01/25 00:27:37;;;;;;;;;;;;;;;2.32;79.64;101651.53;1088725;54;19927;-83
2023/01/25 00:28:41;;;;;;;;;;;;;;;2.34;79.62;101657.63;1088737;54;19951;-82
2023/01/25 00:29:46;;;;;;;;;;;;;;;2.35;79.58;101650.53;1088684;54;19967;-81
2023/01/25 00:30:47;;;;;;;;;;;;;;;2.31;79.37;101652.44;1106577;39;20648;-82
2023/01/25 00:32:03;;;;;;;;;;;;;;;2.34;79.30;101651.44;1088738;54;19971;-82
2023/01/25 00:33:06;;;;;;;;;;;;;;;2.27;79.40;101645.50;1088696;54;19964;-82
2023/01/25 00:34:33;;;;;;;;;;;;;;;2.29;79.63;101640.22;1088716;54;21000;-83
2023/01/25 00:35:37;;;;;;;;;;;;;;;2.33;79.56;101645.31;1088699;54;20643;-83
2023/01/25 00:36:40;;;;;;;;;;;;;;;2.34;79.51;101647.06;1088735;54;19942;-82
2023/01/25 00:37:51;;;;;;;;;;;;;;;2.37;79.61;101637.28;1088850;54;19926;-85
2023/01/25 00:38:52;;;;;;;;;;;;;;;2.40;79.73;101635.44;1088751;54;19939;-83
2023/01/25 00:41:01;;;;;;;;;;;;;;;2.46;79.21;101631.69;1088334;54;19955;-85
2023/01/25 00:42:02;;;;;;;;;;;;;;;2.44;79.17;101631.75;1088798;54;19963;-82
2023/01/25 00:43:06;;;;;;;;;;;;;;;2.46;79.17;101629.91;1088754;54;20960;-83
2023/01/25 00:44:13;;;;;;;;;;;;;;;2.53;78.91;101627.94;1088817;54;20877;-83
2023/01/25 00:46:18;;;;;;;;;;;;;;;2.53;79.05;101629.69;1088800;54;19934;-82
2023/01/25 00:47:19;;;;;;;;;;;;;;;2.56;78.89;101630.44;1089202;39;20597;-83
2023/01/25 00:48:29;;;;;;;;;;;;;;;2.58;78.46;101633.91;1088717;54;20654;-84
2023/01/25 00:49:30;;;;;;;;;;;;;;;2.55;78.65;101625.22;1088812;54;19959;-83
2023/01/25 00:50:34;;;;;;;;;;;;;;;2.47;78.64;101621.09;1088651;54;19979;-82
2023/01/25 00:51:35;;;;;;;;;;;;;;;2.42;79.15;101632.72;1088778;54;19930;-83
2023/01/25 00:54:26;;;;;;;;;;;;;;;2.42;79.51;101623.00;1088460;54;19975;-84
2023/01/25 00:55:27;;;;;;;;;;;;;;;2.53;79.54;101620.00;1089048;46;19946;-83
2023/01/25 00:56:31;;;;;;;;;;;;;;;2.54;78.92;101611.19;1095882;39;20599;-83
2023/01/25 00:58:37;;;;;;;;;;;;;;;2.56;78.73;101616.41;1088817;54;19946;-82
2023/01/25 00:59:43;;;;;;;;;;;;;;;2.55;78.74;101612.88;1088756;54;19950;-82
2023/01/25 01:00:47;;;;;;;;;;;;;;;2.52;78.65;101628.84;1088682;54;19926;-83
2023/01/25 01:01:49;;;;;;;;;;;;;;;2.55;79.32;101627.88;1088678;54;19943;-83
2023/01/25 01:02:54;;;;;;;;;;;;;;;2.58;79.11;101631.25;1088697;54;19927;-84
2023/01/25 01:03:55;;;;;;;;;;;;;;;2.57;78.83;101628.69;1096880;39;20586;-83
2023/01/25 01:05:00;;;;;;;;;;;;;;;2.53;78.95;101629.69;1088743;54;19929;-84
2023/01/25 01:06:01;;;;;;;;;;;;;;;2.49;79.20;101635.09;1088772;54;19930;-84
2023/01/25 01:08:25;;;;;;;;;;;;;;;2.37;79.87;101629.38;1088493;54;19922;-83
2023/01/25 01:09:26;;;;;;;;;;;;;;;2.44;79.72;101626.47;1088646;54;19934;-88
2023/01/25 01:10:29;;;;;;;;;;;;;;;2.52;79.63;101620.94;1089187;46;19923;-85
2023/01/25 01:11:31;;;;;;;;;;;;;;;2.57;79.30;101618.97;1088649;54;19938;-83
2023/01/25 01:12:37;;;;;;;;;;;;;;;2.64;78.91;101622.25;1092597;46;20072;-84
2023/01/25 01:13:52;;;;;;;;;;;;;;;2.59;78.67;101627.72;1088642;54;19952;-83
2023/01/25 01:14:58;;;;;;;;;;;;;;;2.49;79.01;101626.31;1092188;46;19926;-83
2023/01/25 01:17:05;;;;;;;;;;;;;;;2.49;79.30;101619.25;1089061;54;19934;-84
2023/01/25 01:18:06;;;;;;;;;;;;;;;2.44;79.27;101615.06;1090928;46;19923;-84
2023/01/25 01:19:12;;;;;;;;;;;;;;;2.48;79.84;101611.38;1095621;39;20143;-85
2023/01/25 01:20:13;;;;;;;;;;;;;;;2.48;79.59;101611.38;1096747;46;19933;-84
2023/01/25 01:21:19;;;;;;;;;;;;;;;2.47;79.63;101613.16;1088741;54;19927;-84
2023/01/25 01:22:20;;;;;;;;;;;;;;;2.53;79.72;101605.94;1088646;54;20571;-84
2023/01/25 01:23:25;;;;;;;;;;;;;;;2.55;79.53;101606.75;1088734;54;19934;-84
2023/01/25 01:24:26;;;;;;;;;;;;;;;2.55;79.42;101614.66;1088746;54;19927;-85
2023/01/25 01:25:30;;;;;;;;;;;;;;;2.55;79.04;101606.75;1088790;54;19939;-83
2023/01/25 01:26:31;;;;;;;;;;;;;;;2.50;79.28;101617.47;1088637;54;19965;-85
2023/01/25 01:27:35;;;;;;;;;;;;;;;2.51;79.63;101624.47;1088694;54;19934;-85
2023/01/25 01:28:38;;;;;;;;;;;;;;;2.50;79.51;101614.84;1088772;54;19967;-86
2023/01/25 01:29:50;;;;;;;;;;;;;;;2.45;79.93;101614.16;1088762;54;19929;-85
2023/01/25 01:30:58;;;;;;;;;;;;;;;2.45;79.99;101625.56;1088568;54;20634;-84
2023/01/25 01:32:02;;;;;;;;;;;;;;;2.37;80.14;101619.69;1088762;54;19953;-83
2023/01/25 01:33:03;;;;;;;;;;;;;;;2.42;80.09;101617.72;1088705;54;19938;-82
2023/01/25 01:34:07;;;;;;;;;;;;;;;2.48;80.25;101621.94;1088635;54;19961;-84
2023/01/25 01:35:09;;;;;;;;;;;;;;;2.53;79.85;101621.78;1088682;54;19943;-84
2023/01/25 01:36:14;;;;;;;;;;;;;;;2.53;79.76;101624.41;1088718;54;19934;-84
2023/01/25 01:37:19;;;;;;;;;;;;;;;2.55;79.90;101628.72;1088605;54;19931;-86
2023/01/25 01:38:20;;;;;;;;;;;;;;;2.57;79.98;101632.19;1088632;54;19950;-85
2023/01/25 01:39:23;;;;;;;;;;;;;;;2.61;79.98;101627.66;1094828;39;20464;-83
2023/01/25 01:40:25;;;;;;;;;;;;;;;2.62;79.63;101629.38;1088564;54;19923;-84
2023/01/25 01:41:30;;;;;;;;;;;;;;;2.60;79.85;101623.28;1088718;54;19935;-83
2023/01/25 01:42:51;;;;;;;;;;;;;;;2.48;79.56;101622.81;1088698;54;19955;-84
2023/01/25 01:43:57;;;;;;;;;;;;;;;2.47;80.29;101636.06;1089587;46;19949;-84
2023/01/25 01:44:59;;;;;;;;;;;;;;;2.43;80.25;101630.03;1088441;54;19949;-85
2023/01/25 01:46:06;;;;;;;;;;;;;;;2.42;80.24;101632.72;1088511;54;19923;-84
2023/01/25 01:47:11;;;;;;;;;;;;;;;2.38;80.58;101633.72;1088818;54;19950;-84
2023/01/25 01:48:18;;;;;;;;;;;;;;;2.41;80.79;101631.00;1088705;54;20442;-84
2023/01/25 01:49:24;;;;;;;;;;;;;;;2.46;80.84;101634.31;1088701;54;19927;-84
2023/01/25 01:50:25;;;;;;;;;;;;;;;2.52;80.59;101625.31;1089249;46;20296;-82
2023/01/25 01:52:36;;;;;;;;;;;;;;;2.53;80.23;101624.41;1089050;54;19950;-84
2023/01/25 01:54:45;;;;;;;;;;;;;;;2.49;80.48;101624.53;1090799;39;19989;-81
2023/01/25 01:55:48;;;;;;;;;;;;;;;2.53;80.39;101630.56;1088598;54;19927;-84
2023/01/25 01:56:56;;;;;;;;;;;;;;;2.50;80.13;101630.69;1088595;54;19938;-83
2023/01/25 01:57:58;;;;;;;;;;;;;;;2.47;80.35;101626.38;1088617;54;19942;-83
2023/01/25 01:59:04;;;;;;;;;;;;;;;2.52;80.22;101628.84;1088671;54;19933;-84
2023/01/25 02:00:07;;;;;;;;;;;;;;;2.54;80.44;101619.09;1088558;54;20650;-83
2023/01/25 02:01:16;;;;;;;;;;;;;;;2.56;80.21;101625.16;1088559;54;19949;-83
2023/01/25 02:02:18;;;;;;;;;;;;;;;2.55;80.10;101627.88;1088563;54;19962;-84
2023/01/25 02:05:39;;;;;;;;;;;;;;;2.41;80.76;101621.28;1088666;54;19926;-84
2023/01/25 02:07:54;;;;;;;;;;;;;;;2.30;80.96;101613.75;1088663;54;19983;-84
2023/01/25 02:17:47;;;;;;;;;;;;;;;2.33;81.20;101603.09;1087674;54;19943;-82
2023/01/25 02:18:52;;;;;;;;;;;;;;;2.30;81.36;101612.91;1088348;54;19943;-82
2023/01/25 02:20:00;;;;;;;;;;;;;;;2.31;81.84;101610.19;1091862;46;19943;-84
2023/01/25 02:21:01;;;;;;;;;;;;;;;2.31;81.55;101614.63;1088480;54;19926;-81
2023/01/25 02:23:28;;;;;;;;;;;;;;;2.22;81.91;101609.66;1088227;54;19942;-82
2023/01/25 02:24:32;;;;;;;;;;;;;;;2.22;82.11;101610.53;1088130;54;19954;-82
2023/01/25 02:25:40;;;;;;;;;;;;;;;2.25;82.09;101604.25;1088301;54;19942;-81
2023/01/25 02:26:42;;;;;;;;;;;;;;;2.13;81.98;101601.13;1088670;39;20915;-82
2023/01/25 02:27:48;;;;;;;;;;;;;;;2.13;82.45;101608.19;1088126;54;19984;-82
2023/01/25 02:28:51;;;;;;;;;;;;;;;2.02;82.59;101601.50;1088257;54;19946;-82
2023/01/25 02:29:55;;;;;;;;;;;;;;;2.08;83.24;101612.78;1092167;39;20958;-83
2023/01/25 02:30:56;;;;;;;;;;;;;;;2.06;83.10;101606.69;1088271;54;19963;-81
2023/01/25 02:32:05;;;;;;;;;;;;;;;2.08;82.92;101602.22;1088272;54;19927;-81
2023/01/25 02:33:06;;;;;;;;;;;;;;;2.09;82.94;101599.53;1088178;54;19927;-82
2023/01/25 02:34:10;;;;;;;;;;;;;;;2.14;82.95;101594.94;1088334;54;19947;-83
2023/01/25 02:35:18;;;;;;;;;;;;;;;2.15;82.50;101593.19;1098513;39;20924;-83
2023/01/25 02:36:28;;;;;;;;;;;;;;;2.14;82.51;101592.31;1088406;54;19934;-83
2023/01/25 02:37:30;;;;;;;;;;;;;;;2.15;82.62;101598.47;1088450;54;19927;-83
2023/01/25 02:38:35;;;;;;;;;;;;;;;2.13;82.44;101593.22;1088145;54;20766;-82
2023/01/25 02:39:36;;;;;;;;;;;;;;;2.14;82.61;101596.72;1088206;54;19946;-81
2023/01/25 02:40:46;;;;;;;;;;;;;;;2.17;82.58;101605.41;1088174;54;19942;-82
2023/01/25 02:41:47;;;;;;;;;;;;;;;2.20;82.31;101601.78;1088168;54;19943;-82
2023/01/25 02:42:52;;;;;;;;;;;;;;;2.15;81.91;101590.53;1088607;39;20645;-83
2023/01/25 02:43:54;;;;;;;;;;;;;;;2.20;82.06;101596.50;1088086;54;19950;-83
2023/01/25 02:44:58;;;;;;;;;;;;;;;2.21;81.88;101595.59;1088179;54;19938;-82
2023/01/25 02:46:02;;;;;;;;;;;;;;;2.24;81.57;101595.50;1088121;54;19941;-82
2023/01/25 02:47:06;;;;;;;;;;;;;;;2.28;81.90;101597.09;1088163;54;19943;-82
2023/01/25 02:48:07;;;;;;;;;;;;;;;2.31;81.57;101594.38;1088216;54;19938;-83
2023/01/25 02:49:11;;;;;;;;;;;;;;;2.32;81.41;101593.44;1088175;54;19962;-82
2023/01/25 02:50:12;;;;;;;;;;;;;;;2.32;81.02;101585.53;1114446;39;20601;-82
2023/01/25 02:51:16;;;;;;;;;;;;;;;2.29;81.18;101585.63;1088213;54;19934;-82
2023/01/25 02:52:17;;;;;;;;;;;;;;;2.27;81.18;101586.59;1088148;54;19927;-81
2023/01/25 02:53:21;;;;;;;;;;;;;;;2.26;81.26;101587.53;1102460;39;20688;-80
2023/01/25 02:54:23;;;;;;;;;;;;;;;2.25;81.93;101588.44;1088354;54;19927;-83
2023/01/25 02:55:27;;;;;;;;;;;;;;;2.20;81.55;101585.94;1093857;39;20619;-82
2023/01/25 02:56:30;;;;;;;;;;;;;;;2.15;81.56;101577.34;1088133;54;19950;-81
2023/01/25 02:57:35;;;;;;;;;;;;;;;2.11;81.99;101578.34;1088202;54;19943;-81
2023/01/25 02:58:36;;;;;;;;;;;;;;;2.12;82.17;101582.72;1088201;54;20646;-82
2023/01/25 02:59:40;;;;;;;;;;;;;;;2.11;82.32;101579.22;1088201;54;19946;-82
2023/01/25 03:00:41;;;;;;;;;;;;;;;2.14;81.79;101586.16;1088269;54;19930;-82
2023/01/25 03:01:45;;;;;;;;;;;;;;;2.02;82.30;101582.19;1088638;47;19934;-83
2023/01/25 03:02:46;;;;;;;;;;;;;;;2.06;82.32;101580.31;1088194;54;20099;-81
2023/01/25 03:03:50;;;;;;;;;;;;;;;2.07;82.58;101587.31;1093193;46;20164;-83
2023/01/25 03:04:52;;;;;;;;;;;;;;;2.07;82.47;101588.16;1088454;54;19953;-82
2023/01/25 03:05:56;;;;;;;;;;;;;;;2.11;82.69;101581.88;1088567;54;19934;-83
2023/01/25 03:06:57;;;;;;;;;;;;;;;2.14;82.27;101583.53;1088488;54;19946;-84
2023/01/25 03:08:01;;;;;;;;;;;;;;;2.16;82.66;101587.00;1088524;54;19931;-81
2023/01/25 03:09:03;;;;;;;;;;;;;;;2.17;82.12;101575.53;1088514;54;19927;-83
2023/01/25 03:10:12;;;;;;;;;;;;;;;2.18;82.08;101582.50;1090704;46;19923;-82
2023/01/25 03:11:13;;;;;;;;;;;;;;;2.24;81.91;101577.03;1088654;54;19923;-83
2023/01/25 03:12:20;;;;;;;;;;;;;;;2.24;81.61;101578.78;1092556;39;20609;-81
2023/01/25 03:13:21;;;;;;;;;;;;;;;2.27;81.87;101579.53;1091536;46;19947;-82
2023/01/25 03:14:25;;;;;;;;;;;;;;;2.28;81.53;101572.50;1088434;54;20593;-82
2023/01/25 03:15:26;;;;;;;;;;;;;;;2.29;81.36;101576.88;1088442;54;19927;-82
2023/01/25 03:16:32;;;;;;;;;;;;;;;2.34;81.41;101577.53;1095595;39;20563;-82
2023/01/25 03:17:33;;;;;;;;;;;;;;;2.35;80.92;101579.28;1088417;54;19994;-82
2023/01/25 03:18:37;;;;;;;;;;;;;;;2.26;80.62;101583.13;1087800;54;19926;-82
2023/01/25 03:19:38;;;;;;;;;;;;;;;2.25;81.13;101578.75;1088462;54;19947;-82
2023/01/25 03:20:42;;;;;;;;;;;;;;;2.23;81.06;101590.25;1088354;54;19939;-82
2023/01/25 03:21:45;;;;;;;;;;;;;;;2.24;81.22;101577.03;1097433;46;19942;-82
2023/01/25 03:22:49;;;;;;;;;;;;;;;2.27;80.80;101576.03;1088443;54;19933;-83
2023/01/25 03:23:54;;;;;;;;;;;;;;;2.26;81.07;101575.19;1088478;54;19942;-81
2023/01/25 03:24:58;;;;;;;;;;;;;;;2.17;81.23;101572.88;1088415;54;19967;-83
2023/01/25 03:26:08;;;;;;;;;;;;;;;2.10;81.00;101568.72;1091043;46;20002;-83
2023/01/25 03:27:19;;;;;;;;;;;;;;;2.07;81.36;101566.19;1088455;54;19934;-83
2023/01/25 03:28:24;;;;;;;;;;;;;;;2.10;81.41;101564.31;1088231;54;19934;-82
2023/01/25 03:39:46;;;;;;;;;;;;;;;2.00;80.90;101563.75;1089221;39;20655;-83
2023/01/25 03:42:08;;;;;;;;;;;;;;;1.99;81.47;101567.28;1088356;54;19935;-83
2023/01/25 03:45:40;;;;;;;;;;;;;;;2.00;81.71;101563.75;1071475;54;20004;-83
2023/01/25 03:46:41;;;;;;;;;;;;;;;2.00;81.52;101571.66;1087637;54;20710;-82
2023/01/25 03:47:45;;;;;;;;;;;;;;;1.98;81.76;101576.16;1088136;54;19943;-79
2023/01/25 03:48:46;;;;;;;;;;;;;;;2.01;81.49;101569.91;1088235;54;19942;-83
2023/01/25 03:49:50;;;;;;;;;;;;;;;2.02;81.35;101567.19;1088347;54;19933;-83
2023/01/25 03:50:52;;;;;;;;;;;;;;;1.94;81.23;101573.63;1088362;54;19935;-83
2023/01/25 03:51:56;;;;;;;;;;;;;;;1.95;81.45;101572.72;1088647;54;19966;-82
2023/01/25 03:53:01;;;;;;;;;;;;;;;1.94;81.99;101563.09;1088761;54;19955;-83
2023/01/25 03:54:04;;;;;;;;;;;;;;;1.97;81.47;101563.88;1088783;54;19960;-82
2023/01/25 03:55:06;;;;;;;;;;;;;;;1.97;81.42;101558.59;1088767;46;19949;-83
2023/01/25 03:56:16;;;;;;;;;;;;;;;1.99;80.89;101561.19;1088817;54;20318;-82
2023/01/25 03:57:18;;;;;;;;;;;;;;;1.94;80.86;101571.88;1088767;54;19938;-83
2023/01/25 03:58:22;;;;;;;;;;;;;;;1.94;80.70;101563.97;1088709;54;19941;-82
2023/01/25 03:59:23;;;;;;;;;;;;;;;1.98;81.12;101570.00;1094732;46;19950;-82
2023/01/25 04:00:27;;;;;;;;;;;;;;;1.96;80.62;101566.53;1088657;54;19943;-83
2023/01/25 04:01:31;;;;;;;;;;;;;;;1.96;80.64;101564.78;1088784;54;19950;-83
2023/01/25 04:02:35;;;;;;;;;;;;;;;1.99;80.51;101562.03;1088731;54;19943;-83
2023/01/25 04:03:36;;;;;;;;;;;;;;;2.03;80.24;101563.66;1088703;54;19934;-82
2023/01/25 04:04:40;;;;;;;;;;;;;;;2.07;79.81;101555.66;1088846;54;19939;-82
2023/01/25 04:05:41;;;;;;;;;;;;;;;2.05;79.72;101553.03;1096409;39;20225;-83
2023/01/25 04:06:45;;;;;;;;;;;;;;;2.11;79.69;101557.25;1088773;54;19927;-85
2023/01/25 04:07:46;;;;;;;;;;;;;;;2.12;79.49;101551.06;1088729;54;19926;-82
2023/01/25 04:08:50;;;;;;;;;;;;;;;2.16;79.50;101550.91;1088762;54;19942;-83
2023/01/25 04:09:51;;;;;;;;;;;;;;;2.23;79.37;101559.47;1088746;54;19934;-83
2023/01/25 04:10:56;;;;;;;;;;;;;;;2.18;79.13;101556.09;1088752;54;20973;-84
2023/01/25 04:11:57;;;;;;;;;;;;;;;2.15;79.56;101556.25;1088693;54;20594;-83
2023/01/25 04:13:01;;;;;;;;;;;;;;;2.07;80.31;101558.28;1088749;54;19942;-82
2023/01/25 04:14:02;;;;;;;;;;;;;;;2.00;80.85;101561.13;1088818;54;20609;-82
2023/01/25 04:15:06;;;;;;;;;;;;;;;2.02;81.19;101556.66;1088758;54;19983;-82
2023/01/25 04:16:08;;;;;;;;;;;;;;;2.02;81.19;101546.09;1088739;54;19926;-82
2023/01/25 04:17:14;;;;;;;;;;;;;;;2.11;81.28;101551.97;1088810;54;19950;-83
2023/01/25 04:18:15;;;;;;;;;;;;;;;2.18;80.86;101548.19;1088847;54;19938;-83
2023/01/25 04:19:19;;;;;;;;;;;;;;;2.23;80.50;101551.56;1088748;54;19979;-82
2023/01/25 04:20:20;;;;;;;;;;;;;;;2.24;80.24;101545.34;1088928;46;19946;-81
2023/01/25 04:21:25;;;;;;;;;;;;;;;2.29;80.38;101543.41;1088837;54;19983;-82
2023/01/25 04:22:26;;;;;;;;;;;;;;;2.25;79.73;101549.72;1088747;54;19946;-83
2023/01/25 04:23:30;;;;;;;;;;;;;;;2.23;79.87;101548.03;1088798;54;20000;-84
2023/01/25 04:24:31;;;;;;;;;;;;;;;2.23;79.90;101543.63;1088770;54;19937;-83
2023/01/25 04:25:35;;;;;;;;;;;;;;;2.26;80.28;101537.38;1088811;54;19930;-83
2023/01/25 04:26:36;;;;;;;;;;;;;;;2.25;80.02;101536.53;1088754;54;19926;-83
2023/01/25 04:27:39;;;;;;;;;;;;;;;2.26;79.68;101540.00;1088749;54;19927;-83
2023/01/25 04:28:41;;;;;;;;;;;;;;;2.22;80.23;101541.91;1088785;54;19954;-82
2023/01/25 04:29:45;;;;;;;;;;;;;;;2.19;80.10;101536.72;1088702;54;20602;-82
2023/01/25 04:30:47;;;;;;;;;;;;;;;2.12;80.72;101546.66;1088735;54;20649;-83
2023/01/25 04:31:51;;;;;;;;;;;;;;;2.09;80.90;101536.19;1088793;54;19942;-83
2023/01/25 04:32:55;;;;;;;;;;;;;;;2.13;81.57;101536.94;1088766;54;19943;-83
2023/01/25 04:33:59;;;;;;;;;;;;;;;2.19;80.95;101542.00;1088781;54;19949;-83
2023/01/25 04:35:00;;;;;;;;;;;;;;;2.25;80.88;101536.53;1088693;54;19938;-83
2023/01/25 04:36:04;;;;;;;;;;;;;;;2.26;79.99;101540.00;1088770;54;19975;-82
2023/01/25 04:37:05;;;;;;;;;;;;;;;2.21;79.86;101534.06;1088751;54;19938;-83
2023/01/25 04:38:09;;;;;;;;;;;;;;;2.22;79.63;101538.41;1088693;54;19967;-82
2023/01/25 04:39:10;;;;;;;;;;;;;;;2.11;79.56;101538.78;1124477;39;20447;-82
2023/01/25 04:40:14;;;;;;;;;;;;;;;2.10;80.22;101542.31;1088758;54;19927;-84
2023/01/25 04:41:15;;;;;;;;;;;;;;;2.05;80.11;101541.63;1088751;54;19934;-82
2023/01/25 04:42:19;;;;;;;;;;;;;;;2.11;80.23;101538.78;1091780;46;20755;-83
2023/01/25 04:43:20;;;;;;;;;;;;;;;2.16;80.15;101539.50;1088762;54;19931;-83
2023/01/25 04:44:24;;;;;;;;;;;;;;;2.24;79.99;101534.81;1088746;54;19927;-82
2023/01/25 04:45:25;;;;;;;;;;;;;;;2.22;79.44;101541.91;1105946;39;20510;-83
2023/01/25 04:46:28;;;;;;;;;;;;;;;2.12;79.43;101537.88;1088712;54;19949;-83
2023/01/25 04:47:29;;;;;;;;;;;;;;;2.07;79.51;101543.31;1088019;54;19946;-82
2023/01/25 04:48:36;;;;;;;;;;;;;;;2.02;79.90;101540.81;1088682;54;19949;-83
2023/01/25 04:49:37;;;;;;;;;;;;;;;2.03;79.89;101536.44;1088765;54;19926;-83
2023/01/25 04:50:41;;;;;;;;;;;;;;;2.02;79.91;101540.81;1088679;54;19943;-83
2023/01/25 04:51:42;;;;;;;;;;;;;;;2.02;79.27;101534.69;1088688;54;19926;-82
2023/01/25 04:52:47;;;;;;;;;;;;;;;1.97;79.28;101540.13;1088667;54;19935;-83
2023/01/25 04:53:48;;;;;;;;;;;;;;;1.97;79.42;101534.84;1090083;46;19943;-81
2023/01/25 04:54:52;;;;;;;;;;;;;;;2.04;79.21;101540.75;1088642;54;20654;-83
2023/01/25 04:55:56;;;;;;;;;;;;;;;2.08;79.06;101539.75;1090669;46;19923;-83
2023/01/25 04:56:57;;;;;;;;;;;;;;;2.06;78.75;101532.81;1089232;46;19927;-81
2023/01/25 04:58:00;;;;;;;;;;;;;;;2.01;78.50;101532.97;1088584;54;19954;-82
2023/01/25 04:59:01;;;;;;;;;;;;;;;2.01;78.83;101539.09;1088561;54;19933;-81
2023/01/25 05:00:06;;;;;;;;;;;;;;;2.05;78.71;101537.22;1088618;54;19945;-82
2023/01/25 05:01:07;;;;;;;;;;;;;;;2.05;78.54;101533.72;1088688;54;19927;-83
2023/01/25 05:02:10;;;;;;;;;;;;;;;2.03;78.24;101531.16;1088571;54;19938;-83
2023/01/25 05:03:11;;;;;;;;;;;;;;;2.01;78.77;101538.25;1088629;54;19934;-84
2023/01/25 05:04:18;;;;;;;;;;;;;;;2.01;78.64;101528.53;1088671;54;19950;-85
2023/01/25 05:05:19;;;;;;;;;;;;;;;1.99;78.38;101530.38;1088668;54;19949;-83
2023/01/25 05:06:23;;;;;;;;;;;;;;;2.04;78.50;101532.84;1088735;54;19949;-83
2023/01/25 05:07:24;;;;;;;;;;;;;;;1.99;78.12;101530.38;1088783;54;19959;-83
2023/01/25 05:08:29;;;;;;;;;;;;;;;1.99;78.35;101524.25;1088653;54;19941;-82
2023/01/25 05:09:30;;;;;;;;;;;;;;;1.95;78.36;101534.03;1088649;54;19950;-82
2023/01/25 05:10:34;;;;;;;;;;;;;;;1.92;78.72;101528.88;1088597;54;19998;-82
2023/01/25 05:11:36;;;;;;;;;;;;;;;1.94;78.48;101531.44;1088656;54;20753;-81
2023/01/25 05:12:39;;;;;;;;;;;;;;;1.92;78.68;101533.28;1088573;54;19927;-82
2023/01/25 05:13:40;;;;;;;;;;;;;;;1.88;78.36;101540.44;1104912;39;20105;-83
2023/01/25 05:14:44;;;;;;;;;;;;;;;1.85;78.58;101535.28;1088706;54;19926;-83
2023/01/25 05:15:45;;;;;;;;;;;;;;;1.85;78.66;101540.53;1091635;46;19946;-82
2023/01/25 05:16:49;;;;;;;;;;;;;;;1.85;78.68;101532.63;1088969;46;19968;-83
2023/01/25 05:17:50;;;;;;;;;;;;;;;1.87;78.71;101538.72;1088705;54;19926;-80
2023/01/25 05:18:55;;;;;;;;;;;;;;;1.86;78.52;101542.28;1088700;54;19931;-82
2023/01/25 05:19:59;;;;;;;;;;;;;;;1.82;78.36;101532.72;1091111;46;19930;-82
2023/01/25 05:21:03;;;;;;;;;;;;;;;1.85;78.42;101532.63;1088708;54;19930;-82
2023/01/25 05:22:06;;;;;;;;;;;;;;;1.89;78.62;101538.66;1090982;39;20464;-81
2023/01/25 05:23:11;;;;;;;;;;;;;;;1.92;78.22;101533.28;1088701;54;19967;-81
2023/01/25 05:24:12;;;;;;;;;;;;;;;1.93;78.52;101532.38;1088696;54;19950;-83
2023/01/25 05:27:48;;;;;;;;;;;;;;;1.91;78.29;101527.13;1088604;54;19950;-82
2023/01/25 05:28:50;;;;;;;;;;;;;;;1.90;78.46;101524.56;1088621;54;19986;-84
2023/01/25 05:29:53;;;;;;;;;;;;;;;1.88;78.10;101522.00;1089012;46;19986;-82
2023/01/25 05:30:54;;;;;;;;;;;;;;;1.90;78.37;101525.41;1088658;54;19927;-84
2023/01/25 05:31:58;;;;;;;;;;;;;;;1.89;78.49;101530.75;1088535;54;19942;-84
2023/01/25 05:33:02;;;;;;;;;;;;;;;1.89;78.26;101522.84;1088521;54;19943;-83
2023/01/25 05:34:03;;;;;;;;;;;;;;;1.94;78.69;101527.03;1088698;54;19943;-83
2023/01/25 05:36:12;;;;;;;;;;;;;;;1.92;78.33;101525.38;1087517;54;19973;-79
2023/01/25 05:37:14;;;;;;;;;;;;;;;1.93;78.65;101529.75;1087407;54;19951;-79
2023/01/25 05:38:17;;;;;;;;;;;;;;;1.86;78.89;101529.09;1087077;54;20637;-79
2023/01/25 05:39:19;;;;;;;;;;;;;;;1.85;79.27;101524.72;1087325;54;19939;-79
2023/01/25 05:40:22;;;;;;;;;;;;;;;1.97;79.18;101521.66;1087360;54;20433;-78
2023/01/25 05:41:24;;;;;;;;;;;;;;;2.04;78.69;101524.94;1087427;54;19977;-79
2023/01/25 05:42:27;;;;;;;;;;;;;;;2.13;78.71;101527.25;1087159;54;19934;-80
2023/01/25 05:43:28;;;;;;;;;;;;;;;2.20;78.16;101517.34;1089710;39;20431;-79
2023/01/25 05:44:32;;;;;;;;;;;;;;;2.22;77.85;101518.16;1087029;54;19950;-79
2023/01/25 05:45:33;;;;;;;;;;;;;;;2.17;78.13;101514.84;1088456;39;20475;-79
2023/01/25 05:46:37;;;;;;;;;;;;;;;2.15;78.45;101514.88;1087431;54;19946;-79
2023/01/25 05:47:40;;;;;;;;;;;;;;;2.17;78.30;101512.19;1087170;54;19951;-78
2023/01/25 05:48:41;;;;;;;;;;;;;;;2.22;78.10;101512.03;1087221;54;19962;-79
2023/01/25 05:49:45;;;;;;;;;;;;;;;2.19;77.77;101515.63;1087426;54;19995;-79
2023/01/25 05:50:46;;;;;;;;;;;;;;;2.23;77.86;101511.97;1087398;54;19958;-80
2023/01/25 05:51:53;;;;;;;;;;;;;;;2.18;78.26;101508.59;1087097;54;19939;-79
2023/01/25 05:52:54;;;;;;;;;;;;;;;2.14;78.47;101507.00;1087303;54;20539;-79
2023/01/25 05:53:58;;;;;;;;;;;;;;;2.09;78.73;101507.19;1089453;46;19950;-79
2023/01/25 05:54:59;;;;;;;;;;;;;;;2.10;78.82;101502.75;1087159;54;19947;-79
2023/01/25 05:56:06;;;;;;;;;;;;;;;2.14;79.04;101499.94;1087186;54;19950;-79
2023/01/25 05:57:07;;;;;;;;;;;;;;;2.23;78.81;101501.41;1087206;54;19955;-79
2023/01/25 05:58:10;;;;;;;;;;;;;;;2.28;78.37;101496.81;1087208;54;20309;-79
2023/01/25 05:59:11;;;;;;;;;;;;;;;2.24;78.28;101495.22;1087265;54;19942;-79
2023/01/25 06:00:16;;;;;;;;;;;;;;;2.27;78.05;101492.44;1087556;54;19950;-79
2023/01/25 06:01:17;;;;;;;;;;;;;;;2.32;77.94;101490.50;1087254;54;19953;-78
2023/01/25 06:02:20;;;;;;;;;;;;;;;2.36;78.04;101490.41;1087149;54;20018;-79
2023/01/25 06:03:21;;;;;;;;;;;;;;;2.39;77.58;101485.88;1087101;54;19962;-79
2023/01/25 06:04:25;;;;;;;;;;;;;;;2.40;77.93;101486.72;1087107;54;19946;-80
2023/01/25 06:05:26;;;;;;;;;;;;;;;2.42;77.85;101487.53;1087201;54;20641;-80
2023/01/25 06:06:30;;;;;;;;;;;;;;;2.38;77.18;101491.19;1088221;39;20433;-79
2023/01/25 06:07:35;;;;;;;;;;;;;;;2.38;77.54;101494.72;1087289;54;20433;-79
2023/01/25 06:08:39;;;;;;;;;;;;;;;2.42;77.48;101491.03;1087153;54;19951;-79
2023/01/25 06:09:40;;;;;;;;;;;;;;;2.45;77.57;101490.06;1087269;54;20488;-79
2023/01/25 06:10:43;;;;;;;;;;;;;;;2.48;77.23;101493.47;1087374;54;19942;-79
2023/01/25 06:11:44;;;;;;;;;;;;;;;2.46;77.29;101494.41;1087663;39;20349;-79
2023/01/25 06:12:48;;;;;;;;;;;;;;;2.47;76.85;101493.50;1087055;54;19947;-79
2023/01/25 06:13:49;;;;;;;;;;;;;;;2.43;76.93;101492.75;1087038;54;19943;-78
2023/01/25 06:14:53;;;;;;;;;;;;;;;2.38;77.45;101499.13;1087812;39;20362;-79
2023/01/25 06:15:55;;;;;;;;;;;;;;;2.43;77.56;101495.38;1087316;54;20453;-79
2023/01/25 06:16:58;;;;;;;;;;;;;;;2.49;77.50;101491.66;1087293;54;19939;-79
2023/01/25 06:17:59;;;;;;;;;;;;;;;2.53;77.28;101493.28;1087217;54;19947;-79